createdAt,value
2023-03-30T00:00:18.697Z,22.75
2023-03-30T00:02:49.544Z,22.75
2023-03-30T00:05:18.312Z,22.75
2023-03-30T00:07:46.857Z,22.74
2023-03-30T00:10:17.792Z,22.74
2023-03-30T00:12:47.343Z,22.74
2023-03-30T00:15:16.660Z,22.73
2023-03-30T00:17:44.917Z,22.73
2023-03-30T00:20:15.129Z,22.72
2023-03-30T00:22:43.444Z,22.71
2023-03-30T00:25:13.147Z,22.71
2023-03-30T00:27:41.274Z,22.71
2023-03-30T00:30:11.443Z,22.71
2023-03-30T00:32:39.561Z,22.71
2023-03-30T00:35:08.608Z,22.70
2023-03-30T00:37:38.526Z,22.70
2023-03-30T00:40:08.150Z,22.69
2023-03-30T00:42:36.474Z,22.70
2023-03-30T00:45:18.188Z,22.69
2023-03-30T00:47:48.673Z,22.68
2023-03-30T00:50:17.026Z,22.68
2023-03-30T00:52:47.413Z,22.69
2023-03-30T00:55:15.502Z,22.67
2023-03-30T00:57:44.308Z,22.68
2023-03-30T01:00:15.045Z,22.68
2023-03-30T01:02:46.253Z,22.67
2023-03-30T01:05:14.682Z,22.66
2023-03-30T01:07:43.348Z,22.67
2023-03-30T01:10:13.776Z,22.66
2023-03-30T01:12:42.032Z,22.66
2023-03-30T01:15:10.901Z,22.66
2023-03-30T01:17:45.409Z,22.66
2023-03-30T01:20:36.271Z,22.65
2023-03-30T01:23:28.349Z,22.65
2023-03-30T01:26:22.185Z,22.64
2023-03-30T01:28:51.860Z,22.63
2023-03-30T01:31:50.502Z,22.62
2023-03-30T01:34:51.786Z,22.62
2023-03-30T01:38:08.354Z,22.62
2023-03-30T01:40:39.765Z,22.61
2023-03-30T01:43:10.368Z,22.61
2023-03-30T01:45:42.335Z,22.61
2023-03-30T01:48:12.336Z,22.61
2023-03-30T01:50:41.871Z,22.61
2023-03-30T01:53:13.644Z,22.60
2023-03-30T01:55:43.316Z,22.60
2023-03-30T01:58:15.350Z,22.60
2023-03-30T02:00:45.097Z,22.59
2023-03-30T02:03:14.991Z,22.60
2023-03-30T02:05:43.314Z,22.60
2023-03-30T02:08:14.082Z,22.59
2023-03-30T02:10:43.745Z,22.59
2023-03-30T02:13:11.846Z,22.59
2023-03-30T02:15:44.600Z,22.58
2023-03-30T02:18:13.704Z,22.59
2023-03-30T02:20:42.875Z,22.59
2023-03-30T02:23:11.563Z,22.58
2023-03-30T02:25:40.436Z,22.56
2023-03-30T02:28:10.206Z,22.57
2023-03-30T02:30:40.256Z,22.57
2023-03-30T02:33:08.556Z,22.56
2023-03-30T02:35:44.741Z,22.57
2023-03-30T02:38:27.005Z,22.56
2023-03-30T02:41:00.240Z,22.55
2023-03-30T02:43:35.048Z,22.55
2023-03-30T02:46:31.717Z,22.55
2023-03-30T02:49:06.404Z,22.54
2023-03-30T02:51:41.263Z,22.54
2023-03-30T02:54:26.846Z,22.53
2023-03-30T02:57:30.107Z,22.54
2023-03-30T03:00:18.516Z,22.54
2023-03-30T03:02:49.398Z,22.54
2023-03-30T03:05:27.456Z,22.53
2023-03-30T03:08:09.722Z,22.52
2023-03-30T03:10:38.724Z,22.52
2023-03-30T03:13:08.250Z,22.52
2023-03-30T03:15:38.551Z,22.52
2023-03-30T03:18:10.659Z,22.52
2023-03-30T03:20:39.401Z,22.51
2023-03-30T03:23:07.581Z,22.52
2023-03-30T03:25:57.009Z,22.51
2023-03-30T03:28:25.383Z,22.50
2023-03-30T03:30:59.917Z,22.52
2023-03-30T03:33:28.325Z,22.51
2023-03-30T03:36:03.562Z,22.51
2023-03-30T03:38:34.187Z,22.50
2023-03-30T03:41:02.590Z,22.50
2023-03-30T03:43:31.948Z,22.49
2023-03-30T03:46:01.542Z,22.50
2023-03-30T03:48:29.770Z,22.49
2023-03-30T03:50:58.888Z,22.48
2023-03-30T03:53:29.307Z,22.48
2023-03-30T03:56:02.388Z,22.48
2023-03-30T03:58:30.765Z,22.48
2023-03-30T04:01:01.930Z,22.48
2023-03-30T04:03:30.434Z,22.48
2023-03-30T04:06:00.339Z,22.47
2023-03-30T04:08:29.658Z,22.47
2023-03-30T04:11:07.980Z,22.48
2023-03-30T04:14:06.632Z,22.47
2023-03-30T04:17:06.508Z,22.47
2023-03-30T04:19:55.242Z,22.46
2023-03-30T04:22:46.193Z,22.46
2023-03-30T04:25:43.000Z,22.48
2023-03-30T04:28:21.998Z,22.47
2023-03-30T04:30:52.824Z,22.47
2023-03-30T04:33:47.377Z,22.47
2023-03-30T04:36:43.454Z,22.47
2023-03-30T04:39:41.577Z,22.45
2023-03-30T04:42:30.294Z,22.45
2023-03-30T04:45:21.767Z,22.46
2023-03-30T04:48:08.795Z,22.44
2023-03-30T04:50:38.425Z,22.46
2023-03-30T04:53:23.155Z,22.46
2023-03-30T04:56:11.827Z,22.46
2023-03-30T04:59:00.238Z,22.46
2023-03-30T05:01:51.075Z,22.47
2023-03-30T05:04:28.724Z,22.48
2023-03-30T05:07:16.722Z,22.48
2023-03-30T05:10:03.295Z,22.48
2023-03-30T05:12:50.066Z,22.49
2023-03-30T05:15:37.018Z,22.48
2023-03-30T05:18:33.060Z,22.50
2023-03-30T05:21:17.855Z,22.50
2023-03-30T05:24:06.311Z,22.52
2023-03-30T05:26:58.627Z,22.52
2023-03-30T05:30:05.812Z,22.51
2023-03-30T05:32:49.958Z,22.51
2023-03-30T05:35:36.386Z,22.49
2023-03-30T05:38:04.850Z,22.29
2023-03-30T05:40:43.402Z,22.18
2023-03-30T05:43:39.323Z,22.22
2023-03-30T05:46:15.375Z,22.27
2023-03-30T05:49:17.257Z,22.31
2023-03-30T05:51:53.765Z,22.32
2023-03-30T05:54:42.118Z,22.34
2023-03-30T05:57:43.820Z,22.37
2023-03-30T06:00:28.971Z,22.38
2023-03-30T06:03:07.923Z,22.39
2023-03-30T06:05:36.423Z,22.40
2023-03-30T06:08:06.126Z,22.41
2023-03-30T06:10:34.292Z,22.42
2023-03-30T06:13:03.882Z,22.43
2023-03-30T06:15:43.040Z,22.44
2023-03-30T06:18:16.236Z,22.44
2023-03-30T06:20:52.900Z,22.45
2023-03-30T06:23:23.101Z,22.45
2023-03-30T06:25:54.654Z,22.46
2023-03-30T06:28:29.846Z,22.46
2023-03-30T06:30:58.152Z,22.47
2023-03-30T06:33:27.877Z,22.48
2023-03-30T06:35:58.865Z,22.48
2023-03-30T06:38:27.713Z,22.49
2023-03-30T06:40:57.264Z,22.49
2023-03-30T06:43:27.460Z,22.49
2023-03-30T06:46:23.264Z,22.49
2023-03-30T06:48:52.471Z,22.49
2023-03-30T06:51:39.202Z,22.51
2023-03-30T06:54:08.507Z,22.51
2023-03-30T06:56:39.408Z,22.52
2023-03-30T06:59:14.034Z,22.51
2023-03-30T07:02:14.891Z,22.52
2023-03-30T07:05:01.243Z,22.53
2023-03-30T07:07:53.626Z,22.53
2023-03-30T07:10:22.712Z,22.53
2023-03-30T07:12:51.537Z,22.52
2023-03-30T07:15:22.654Z,22.54
2023-03-30T07:17:53.564Z,22.55
2023-03-30T07:20:22.213Z,22.54
2023-03-30T07:23:09.208Z,22.56
2023-03-30T07:25:37.488Z,22.55
2023-03-30T07:28:14.140Z,22.55
2023-03-30T07:30:43.000Z,22.57
2023-03-30T07:33:14.808Z,22.57
2023-03-30T07:35:45.036Z,22.57
2023-03-30T07:38:14.629Z,22.58
2023-03-30T07:40:48.691Z,22.57
2023-03-30T07:43:17.418Z,22.59
2023-03-30T07:45:46.024Z,22.59
2023-03-30T07:48:21.891Z,22.59
2023-03-30T07:50:52.481Z,22.59
2023-03-30T07:53:22.818Z,22.59
2023-03-30T07:55:53.223Z,22.59
2023-03-30T07:58:30.396Z,22.60
2023-03-30T08:00:58.819Z,22.60
2023-03-30T08:03:49.298Z,22.60
2023-03-30T08:06:18.492Z,22.61
2023-03-30T08:08:49.568Z,22.61
2023-03-30T08:11:17.799Z,22.62
2023-03-30T08:13:46.060Z,22.61
2023-03-30T08:16:14.223Z,22.61
2023-03-30T08:18:42.532Z,22.62
2023-03-30T08:21:12.323Z,22.62
2023-03-30T08:23:40.406Z,22.62
2023-03-30T08:26:08.891Z,22.63
2023-03-30T08:28:36.946Z,22.64
2023-03-30T08:31:06.122Z,22.62
2023-03-30T08:33:34.927Z,22.63
2023-03-30T08:36:03.144Z,22.64
2023-03-30T08:38:32.950Z,22.65
2023-03-30T08:41:01.282Z,22.64
2023-03-30T08:43:43.884Z,22.65
2023-03-30T08:46:13.657Z,22.64
2023-03-30T08:48:42.985Z,22.65
2023-03-30T08:51:16.793Z,22.64
2023-03-30T08:53:47.337Z,22.64
2023-03-30T08:56:18.174Z,22.64
2023-03-30T08:58:48.581Z,22.64
2023-03-30T09:01:20.236Z,22.64
2023-03-30T09:03:59.740Z,22.65
2023-03-30T09:06:31.150Z,22.64
2023-03-30T09:09:00.690Z,22.65
2023-03-30T09:11:32.042Z,22.64
2023-03-30T09:14:01.789Z,22.65
2023-03-30T09:16:34.647Z,22.65
2023-03-30T09:19:03.186Z,22.65
2023-03-30T09:21:32.263Z,22.65
2023-03-30T09:24:02.155Z,22.65
2023-03-30T09:26:34.624Z,22.65
2023-03-30T09:29:04.643Z,22.64
2023-03-30T09:31:34.416Z,22.65
2023-03-30T09:34:06.390Z,22.63
2023-03-30T09:36:38.435Z,22.64
2023-03-30T09:39:11.787Z,22.63
2023-03-30T09:41:58.493Z,22.63
2023-03-30T09:44:28.539Z,22.63
2023-03-30T09:46:59.651Z,22.63
2023-03-30T09:49:28.319Z,22.63
2023-03-30T09:51:58.352Z,22.63
2023-03-30T09:54:28.241Z,22.63
2023-03-30T09:56:57.034Z,22.63
2023-03-30T09:59:30.951Z,22.62
2023-03-30T10:02:11.048Z,22.62
2023-03-30T10:04:58.556Z,22.62
2023-03-30T10:07:27.963Z,22.62
2023-03-30T10:09:57.464Z,22.61
2023-03-30T10:12:25.993Z,22.62
2023-03-30T10:14:57.452Z,22.61
2023-03-30T10:17:26.546Z,22.61
2023-03-30T10:20:03.539Z,22.61
2023-03-30T10:22:39.688Z,22.61
2023-03-30T10:25:18.630Z,22.60
2023-03-30T10:27:47.480Z,22.61
2023-03-30T10:30:19.877Z,22.61
2023-03-30T10:32:48.098Z,22.60
2023-03-30T10:35:19.632Z,22.60
2023-03-30T10:37:48.179Z,22.60
2023-03-30T10:40:19.992Z,22.60
2023-03-30T10:42:48.397Z,22.59
2023-03-30T10:45:18.322Z,22.60
2023-03-30T10:47:53.477Z,22.60
2023-03-30T10:50:26.908Z,22.60
2023-03-30T10:53:00.458Z,22.58
2023-03-30T10:55:33.112Z,22.59
2023-03-30T10:58:04.344Z,22.58
2023-03-30T11:00:35.999Z,22.59
2023-03-30T11:03:08.157Z,22.58
2023-03-30T11:05:37.311Z,22.57
2023-03-30T11:08:06.213Z,22.57
2023-03-30T11:10:38.429Z,22.57
2023-03-30T11:13:08.157Z,22.57
2023-03-30T11:15:38.866Z,22.57
2023-03-30T11:18:11.483Z,22.57
2023-03-30T11:20:41.914Z,22.56
2023-03-30T11:23:15.213Z,22.56
2023-03-30T11:25:52.207Z,22.56
2023-03-30T11:28:24.492Z,22.56
2023-03-30T11:30:52.765Z,22.55
2023-03-30T11:33:23.335Z,22.57
2023-03-30T11:35:53.938Z,22.55
2023-03-30T11:38:24.733Z,22.56
2023-03-30T11:40:56.089Z,22.55
2023-03-30T11:43:30.157Z,22.56
2023-03-30T11:46:04.038Z,22.54
2023-03-30T11:48:42.842Z,22.55
2023-03-30T11:51:22.028Z,22.54
2023-03-30T11:53:54.003Z,22.54
2023-03-30T11:56:27.829Z,22.54
2023-03-30T11:59:03.105Z,22.54
2023-03-30T12:01:50.291Z,22.54
2023-03-30T12:04:20.992Z,22.54
2023-03-30T12:06:51.812Z,22.54
2023-03-30T12:09:26.828Z,22.53
2023-03-30T12:12:04.590Z,22.54
2023-03-30T12:14:57.098Z,22.53
2023-03-30T12:17:33.297Z,22.52
2023-03-30T12:20:04.685Z,22.53
2023-03-30T12:22:36.336Z,22.52
2023-03-30T12:25:09.039Z,22.52
2023-03-30T12:27:52.597Z,22.53
2023-03-30T12:30:26.124Z,22.52
2023-03-30T12:33:02.351Z,22.52
2023-03-30T12:35:53.448Z,22.52
2023-03-30T12:38:23.590Z,22.51
2023-03-30T12:40:55.520Z,22.52
2023-03-30T12:43:26.439Z,22.51
2023-03-30T12:46:02.865Z,22.51
2023-03-30T12:48:36.703Z,22.52
2023-03-30T12:51:15.688Z,22.52
2023-03-30T12:53:54.282Z,22.52
2023-03-30T12:56:28.946Z,22.53
2023-03-30T12:59:24.316Z,22.53
2023-03-30T13:02:13.468Z,22.54
2023-03-30T13:04:42.010Z,22.54
2023-03-30T13:07:15.358Z,22.53
2023-03-30T13:09:55.164Z,22.54
2023-03-30T13:12:39.120Z,22.56
2023-03-30T13:15:36.491Z,22.55
2023-03-30T13:18:05.292Z,22.55
2023-03-30T13:20:34.446Z,22.55
2023-03-30T13:23:07.783Z,22.56
2023-03-30T13:25:40.139Z,22.56
2023-03-30T13:28:35.799Z,22.57
2023-03-30T13:31:10.178Z,22.58
2023-03-30T13:33:38.531Z,22.57
2023-03-30T13:36:07.439Z,22.58
2023-03-30T13:38:41.194Z,22.58
2023-03-30T13:41:15.466Z,22.57
2023-03-30T13:43:57.160Z,22.60
2023-03-30T13:46:29.627Z,22.60
2023-03-30T13:49:16.239Z,22.61
2023-03-30T13:51:44.411Z,22.62
2023-03-30T13:54:14.842Z,22.62
2023-03-30T13:56:44.876Z,22.63
2023-03-30T13:59:14.360Z,22.62
2023-03-30T14:01:46.039Z,22.63
2023-03-30T14:04:15.437Z,22.63
2023-03-30T14:06:45.847Z,22.63
2023-03-30T14:09:15.163Z,22.63
2023-03-30T14:11:45.619Z,22.63
2023-03-30T14:14:19.182Z,22.63
2023-03-30T14:16:48.730Z,22.62
2023-03-30T14:19:21.973Z,22.62
2023-03-30T14:21:50.129Z,22.61
2023-03-30T14:24:19.027Z,22.61
2023-03-30T14:26:47.761Z,22.61
2023-03-30T14:29:24.664Z,22.60
2023-03-30T14:32:08.359Z,22.59
2023-03-30T14:34:38.185Z,22.59
2023-03-30T14:37:07.552Z,22.58
2023-03-30T14:39:40.089Z,22.58
2023-03-30T14:42:11.082Z,22.56
2023-03-30T14:44:39.797Z,22.57
2023-03-30T14:47:09.257Z,22.56
2023-03-30T14:49:37.328Z,22.56
2023-03-30T14:52:08.912Z,22.57
2023-03-30T14:54:37.684Z,22.55
2023-03-30T14:57:07.520Z,22.55
2023-03-30T14:59:39.254Z,22.52
2023-03-30T15:02:12.981Z,22.53
2023-03-30T15:04:41.205Z,22.52
2023-03-30T15:07:13.259Z,22.52
2023-03-30T15:09:41.385Z,22.52
2023-03-30T15:12:09.435Z,22.51
2023-03-30T15:14:38.384Z,22.52
2023-03-30T15:17:12.141Z,22.51
2023-03-30T15:19:40.361Z,22.51
2023-03-30T15:22:11.469Z,22.50
2023-03-30T15:24:39.606Z,22.50
2023-03-30T15:27:08.451Z,22.49
2023-03-30T15:29:36.694Z,22.49
2023-03-30T15:32:09.205Z,22.48
2023-03-30T15:34:38.788Z,22.49
2023-03-30T15:37:22.269Z,22.48
2023-03-30T15:39:50.464Z,22.48
2023-03-30T15:42:26.017Z,22.48
2023-03-30T15:45:02.595Z,22.48
2023-03-30T15:47:31.097Z,22.47
2023-03-30T15:50:00.672Z,22.45
2023-03-30T15:52:34.078Z,22.45
2023-03-30T15:55:05.432Z,22.45
2023-03-30T15:57:33.652Z,22.44
2023-03-30T16:00:02.690Z,22.44
2023-03-30T16:02:40.333Z,22.44
2023-03-30T16:05:17.759Z,22.44
2023-03-30T16:07:46.020Z,22.44
2023-03-30T16:10:15.193Z,22.44
2023-03-30T16:12:43.513Z,22.43
2023-03-30T16:15:15.052Z,22.43
2023-03-30T16:17:43.197Z,22.44
2023-03-30T16:20:17.749Z,22.42
2023-03-30T16:22:47.324Z,22.42
2023-03-30T16:25:15.920Z,22.43
2023-03-30T16:27:44.210Z,22.41
2023-03-30T16:30:16.368Z,22.42
2023-03-30T16:32:44.508Z,22.41
2023-03-30T16:35:12.612Z,22.41
2023-03-30T16:37:42.103Z,22.42
2023-03-30T16:40:15.862Z,22.42
2023-03-30T16:42:43.995Z,22.41
2023-03-30T16:45:12.083Z,22.41
2023-03-30T16:47:40.231Z,22.40
2023-03-30T16:50:17.764Z,22.41
2023-03-30T16:52:47.232Z,22.40
2023-03-30T16:55:15.616Z,22.41
2023-03-30T16:57:43.729Z,22.40
2023-03-30T17:00:21.162Z,22.40
2023-03-30T17:02:49.390Z,22.39
2023-03-30T17:05:17.936Z,22.39
2023-03-30T17:07:47.578Z,22.39
2023-03-30T17:10:18.541Z,22.39
2023-03-30T17:12:46.718Z,22.39
2023-03-30T17:15:14.751Z,22.39
2023-03-30T17:17:42.923Z,22.40
2023-03-30T17:20:19.103Z,22.38
2023-03-30T17:22:48.628Z,22.39
2023-03-30T17:25:17.638Z,22.38
2023-03-30T17:27:45.852Z,22.38
2023-03-30T17:30:19.424Z,22.38
2023-03-30T17:32:47.940Z,22.38
2023-03-30T17:35:16.267Z,22.37
2023-03-30T17:37:44.509Z,22.37
2023-03-30T17:40:19.926Z,22.37
2023-03-30T17:42:48.138Z,22.37
2023-03-30T17:45:17.856Z,22.36
2023-03-30T17:47:46.159Z,22.36
2023-03-30T17:50:21.447Z,22.36
2023-03-30T17:52:49.693Z,22.36
2023-03-30T17:55:19.377Z,22.36
2023-03-30T17:57:47.644Z,22.35
2023-03-30T18:00:18.824Z,22.36
2023-03-30T18:02:47.063Z,22.37
2023-03-30T18:05:15.677Z,22.36
2023-03-30T18:07:43.861Z,22.37
2023-03-30T18:10:20.494Z,22.37
2023-03-30T18:12:48.850Z,22.36
2023-03-30T18:15:17.136Z,22.37
2023-03-30T18:17:45.355Z,22.37
2023-03-30T18:20:25.933Z,22.37
2023-03-30T18:22:54.094Z,22.37
2023-03-30T18:25:32.020Z,22.36
2023-03-30T18:28:01.380Z,22.37
2023-03-30T18:30:30.493Z,22.37
2023-03-30T18:32:58.930Z,22.37
2023-03-30T18:35:28.797Z,22.37
2023-03-30T18:37:57.093Z,22.38
2023-03-30T18:40:30.505Z,22.38
2023-03-30T18:43:00.688Z,22.39
2023-03-30T18:45:29.527Z,22.39
2023-03-30T18:47:58.388Z,22.40
2023-03-30T18:50:31.556Z,22.40
2023-03-30T18:53:02.350Z,22.40
2023-03-30T18:55:32.157Z,22.39
2023-03-30T18:58:00.228Z,22.39
2023-03-30T19:00:34.429Z,22.39
2023-03-30T19:03:03.821Z,22.39
2023-03-30T19:05:32.994Z,22.40
2023-03-30T19:08:01.502Z,22.40
2023-03-30T19:10:31.904Z,22.42
2023-03-30T19:13:00.117Z,22.42
2023-03-30T19:15:29.218Z,22.41
2023-03-30T19:17:57.622Z,22.41
2023-03-30T19:20:27.032Z,22.42
2023-03-30T19:22:55.210Z,22.42
2023-03-30T19:25:23.964Z,22.43
2023-03-30T19:28:02.653Z,22.42
2023-03-30T19:30:32.657Z,22.42
2023-03-30T19:33:02.160Z,22.42
2023-03-30T19:35:30.623Z,22.40
2023-03-30T19:37:58.760Z,22.42
2023-03-30T19:40:26.893Z,22.41
2023-03-30T19:42:56.367Z,22.42
2023-03-30T19:45:24.876Z,22.41
2023-03-30T19:47:53.268Z,22.41
2023-03-30T19:50:23.860Z,22.42
2023-03-30T19:52:52.111Z,22.41
2023-03-30T19:55:20.713Z,22.41
2023-03-30T19:57:48.815Z,22.42
2023-03-30T20:00:18.915Z,22.41
2023-03-30T20:02:48.001Z,22.42
2023-03-30T20:05:16.802Z,22.41
2023-03-30T20:07:45.072Z,22.42
2023-03-30T20:10:14.106Z,22.40
2023-03-30T20:12:42.265Z,22.41
2023-03-30T20:15:11.351Z,22.40
2023-03-30T20:17:42.076Z,22.41
2023-03-30T20:20:12.769Z,22.40
2023-03-30T20:22:41.962Z,22.41
2023-03-30T20:25:11.360Z,22.41
2023-03-30T20:27:40.269Z,22.40
2023-03-30T20:30:09.616Z,22.41
2023-03-30T20:32:37.803Z,22.41
2023-03-30T20:35:08.397Z,22.40
2023-03-30T20:37:36.499Z,22.41
2023-03-30T20:40:05.665Z,22.40
2023-03-30T20:42:33.832Z,22.41
2023-03-30T20:45:02.027Z,22.40
2023-03-30T20:47:31.349Z,22.40
2023-03-30T20:49:59.560Z,22.40
2023-03-30T20:52:29.246Z,22.41
2023-03-30T20:54:57.749Z,22.40
2023-03-30T20:57:25.936Z,22.40
2023-03-30T20:59:54.265Z,22.41
2023-03-30T21:02:22.575Z,22.40
2023-03-30T21:04:50.756Z,22.40
2023-03-30T21:07:18.920Z,22.40
2023-03-30T21:09:48.378Z,22.40
2023-03-30T21:12:16.508Z,22.40
2023-03-30T21:14:45.925Z,22.39
2023-03-30T21:17:14.090Z,22.40
2023-03-30T21:19:42.289Z,22.40
2023-03-30T21:22:10.546Z,22.40
2023-03-30T21:24:38.695Z,22.39
2023-03-30T21:27:08.169Z,22.39
2023-03-30T21:29:36.356Z,22.39
2023-03-30T21:32:04.476Z,22.39
2023-03-30T21:34:32.820Z,22.39
2023-03-30T21:37:01.225Z,22.38
2023-03-30T21:39:29.526Z,22.38
2023-03-30T21:41:57.622Z,22.38
2023-03-30T21:44:27.216Z,22.37
2023-03-30T21:46:55.316Z,22.37
2023-03-30T21:49:23.481Z,22.36
2023-03-30T21:51:52.161Z,22.36
2023-03-30T21:54:20.551Z,22.35
2023-03-30T21:56:48.771Z,22.35
2023-03-30T21:59:18.868Z,22.33
2023-03-30T22:01:48.444Z,22.34
2023-03-30T22:04:16.576Z,22.33
2023-03-30T22:06:44.788Z,22.34
2023-03-30T22:09:12.928Z,22.32
2023-03-30T22:11:41.116Z,22.31
2023-03-30T22:14:09.292Z,22.32
